createdAt,value
2018-07-31T00:00:44.838Z,30.36
2018-07-31T00:01:44.718Z,30.34
2018-07-31T00:02:44.699Z,30.37
2018-07-31T00:03:44.685Z,30.34
2018-07-31T00:04:44.683Z,30.38
2018-07-31T00:05:44.824Z,30.30
2018-07-31T00:06:44.744Z,30.29
2018-07-31T00:07:44.637Z,30.34
2018-07-31T00:08:44.628Z,30.40
2018-07-31T00:09:44.766Z,30.29
2018-07-31T00:10:44.636Z,30.29
2018-07-31T00:11:44.608Z,30.45
2018-07-31T00:12:44.586Z,30.44
2018-07-31T00:13:44.694Z,30.44
2018-07-31T00:14:44.667Z,30.36
2018-07-31T00:15:44.664Z,30.38
2018-07-31T00:16:44.575Z,30.30
2018-07-31T00:17:44.646Z,30.29
2018-07-31T00:18:44.592Z,30.42
2018-07-31T00:19:44.518Z,30.36
2018-07-31T00:20:44.656Z,30.30
2018-07-31T00:21:44.496Z,30.37
2018-07-31T00:22:44.481Z,30.29
2018-07-31T00:23:44.469Z,30.34
2018-07-31T00:24:44.480Z,30.28
2018-07-31T00:25:44.524Z,30.28
2018-07-31T00:26:44.450Z,30.25
2018-07-31T00:27:44.548Z,30.23
2018-07-31T00:28:44.429Z,30.30
2018-07-31T00:29:44.517Z,30.26
2018-07-31T00:30:44.405Z,30.32
2018-07-31T00:31:44.532Z,30.34
2018-07-31T00:32:44.380Z,30.18
2018-07-31T00:33:44.468Z,30.28
2018-07-31T00:34:44.371Z,30.28
2018-07-31T00:35:44.356Z,30.29
2018-07-31T00:36:44.352Z,30.22
2018-07-31T00:37:44.345Z,30.18
2018-07-31T00:38:44.421Z,30.22
2018-07-31T00:39:44.309Z,30.29
2018-07-31T00:40:44.304Z,30.16
2018-07-31T00:41:44.312Z,30.29
2018-07-31T00:42:44.385Z,30.26
2018-07-31T00:43:44.281Z,30.23
2018-07-31T00:44:44.256Z,30.22
2018-07-31T00:45:44.246Z,30.23
2018-07-31T00:46:44.316Z,30.19
2018-07-31T00:47:44.247Z,30.26
2018-07-31T00:48:44.217Z,30.25
2018-07-31T00:49:44.207Z,30.28
2018-07-31T00:50:44.558Z,30.25
2018-07-31T00:51:44.230Z,30.22
2018-07-31T00:52:44.280Z,30.23
2018-07-31T00:53:44.264Z,30.21
2018-07-31T00:54:44.260Z,30.16
2018-07-31T00:55:44.150Z,30.15
2018-07-31T00:56:44.146Z,30.08
2018-07-31T00:57:44.139Z,30.18
2018-07-31T00:58:44.131Z,30.16
2018-07-31T00:59:44.124Z,30.10
2018-07-31T01:00:44.197Z,30.07
2018-07-31T01:01:44.206Z,30.13
2018-07-31T01:02:44.080Z,30.16
2018-07-31T01:03:44.113Z,30.08
2018-07-31T01:04:44.077Z,30.13
2018-07-31T01:05:44.043Z,30.11
2018-07-31T01:06:44.071Z,30.13
2018-07-31T01:07:44.032Z,30.08
2018-07-31T01:08:44.015Z,30.06
2018-07-31T01:09:44.104Z,30.03
2018-07-31T01:10:44.084Z,30.11
2018-07-31T01:11:43.994Z,30.07
2018-07-31T01:12:43.973Z,30.01
2018-07-31T01:13:43.973Z,30.13
2018-07-31T01:14:43.947Z,30.15
2018-07-31T01:15:43.957Z,30.06
2018-07-31T01:16:43.966Z,30.08
2018-07-31T01:17:43.926Z,29.95
2018-07-31T01:18:43.919Z,30.03
2018-07-31T01:19:43.954Z,30.10
2018-07-31T01:20:43.886Z,29.94
2018-07-31T01:21:43.989Z,30.04
2018-07-31T01:22:43.917Z,30.01
2018-07-31T01:23:43.865Z,29.92
2018-07-31T01:24:43.845Z,29.97
2018-07-31T01:25:43.904Z,30.08
2018-07-31T01:26:43.847Z,30.07
2018-07-31T01:27:43.818Z,30.06
2018-07-31T01:28:43.819Z,29.95
2018-07-31T01:29:43.796Z,30.00
2018-07-31T01:30:43.792Z,29.99
2018-07-31T01:31:43.786Z,29.94
2018-07-31T01:32:43.780Z,29.97
2018-07-31T01:33:43.789Z,30.01
2018-07-31T01:34:43.753Z,30.06
2018-07-31T01:35:43.824Z,29.91
2018-07-31T01:36:43.745Z,29.91
2018-07-31T01:37:43.741Z,29.91
2018-07-31T01:38:43.700Z,29.97
2018-07-31T01:39:43.817Z,29.94
2018-07-31T01:40:43.695Z,29.94
2018-07-31T01:41:43.814Z,29.99
2018-07-31T01:42:43.674Z,29.92
2018-07-31T01:43:43.675Z,29.84
2018-07-31T01:44:43.780Z,30.00
2018-07-31T01:45:43.632Z,29.92
2018-07-31T01:46:43.779Z,29.91
2018-07-31T01:47:43.638Z,30.00
2018-07-31T01:48:43.599Z,29.91
2018-07-31T01:49:43.725Z,29.94
2018-07-31T01:50:43.593Z,30.00
2018-07-31T01:51:43.655Z,29.91
2018-07-31T01:52:43.920Z,29.94
2018-07-31T01:53:43.625Z,29.86
2018-07-31T01:54:43.555Z,29.95
2018-07-31T01:55:43.639Z,29.84
2018-07-31T01:56:43.528Z,29.82
2018-07-31T01:57:43.535Z,29.95
2018-07-31T01:58:43.516Z,29.92
2018-07-31T01:59:43.563Z,29.94
2018-07-31T02:00:43.480Z,29.81
2018-07-31T02:01:43.611Z,29.81
2018-07-31T02:02:43.474Z,29.82
2018-07-31T02:03:43.450Z,29.82
2018-07-31T02:04:43.451Z,29.86
2018-07-31T02:05:43.505Z,29.78
2018-07-31T02:06:43.427Z,29.97
2018-07-31T02:07:43.423Z,29.88
2018-07-31T02:08:43.417Z,29.81
2018-07-31T02:09:43.430Z,29.86
2018-07-31T02:10:43.384Z,29.81
2018-07-31T02:11:43.380Z,29.81
2018-07-31T02:12:43.370Z,29.79
2018-07-31T02:13:43.456Z,29.86
2018-07-31T02:14:43.349Z,29.86
2018-07-31T02:15:43.385Z,29.92
2018-07-31T02:16:43.433Z,29.84
2018-07-31T02:17:43.421Z,29.84
2018-07-31T02:18:43.295Z,29.84
2018-07-31T02:19:43.285Z,29.91
2018-07-31T02:20:43.337Z,29.88
2018-07-31T02:21:43.263Z,29.84
2018-07-31T02:22:43.276Z,29.79
2018-07-31T02:23:43.247Z,29.81
2018-07-31T02:24:43.235Z,29.88
2018-07-31T02:25:43.220Z,29.81
2018-07-31T02:26:43.205Z,29.88
2018-07-31T02:27:43.208Z,29.78
2018-07-31T02:28:43.251Z,29.79
2018-07-31T02:29:43.175Z,29.89
2018-07-31T02:30:43.172Z,29.78
2018-07-31T02:31:43.266Z,29.81
2018-07-31T02:32:43.158Z,29.85
2018-07-31T02:33:43.146Z,29.70
2018-07-31T02:34:43.238Z,29.73
2018-07-31T02:35:43.115Z,29.86
2018-07-31T02:36:43.131Z,29.82
2018-07-31T02:37:43.133Z,29.82
2018-07-31T02:38:43.194Z,29.73
2018-07-31T02:39:43.081Z,29.74
2018-07-31T02:40:43.117Z,29.79
2018-07-31T02:41:43.061Z,29.76
2018-07-31T02:42:43.061Z,29.67
2018-07-31T02:43:43.049Z,29.67
2018-07-31T02:44:43.108Z,29.73
2018-07-31T02:45:43.007Z,29.74
2018-07-31T02:46:42.998Z,29.79
2018-07-31T02:47:43.001Z,29.74
2018-07-31T02:48:43.000Z,29.74
2018-07-31T02:49:42.969Z,29.81
2018-07-31T02:50:42.952Z,29.74
2018-07-31T02:51:43.007Z,29.78
2018-07-31T02:52:42.934Z,29.79
2018-07-31T02:53:42.936Z,29.74
2018-07-31T02:54:43.055Z,29.78
2018-07-31T02:55:42.901Z,29.70
2018-07-31T02:56:42.899Z,29.71
2018-07-31T02:57:42.890Z,29.71
2018-07-31T02:58:42.883Z,29.76
2018-07-31T02:59:42.863Z,29.71
2018-07-31T03:00:42.872Z,29.67
2018-07-31T03:01:42.845Z,29.70
2018-07-31T03:02:42.828Z,29.69
2018-07-31T03:03:42.974Z,29.70
2018-07-31T03:04:42.840Z,29.66
2018-07-31T03:05:42.801Z,29.64
2018-07-31T03:06:42.792Z,29.74
2018-07-31T03:07:42.776Z,29.63
2018-07-31T03:08:42.779Z,29.70
2018-07-31T03:09:42.771Z,29.58
2018-07-31T03:10:42.764Z,29.58
2018-07-31T03:11:42.795Z,29.60
2018-07-31T03:12:42.726Z,29.60
2018-07-31T03:13:42.728Z,29.58
2018-07-31T03:14:42.725Z,29.63
2018-07-31T03:15:43.013Z,29.64
2018-07-31T03:16:42.816Z,29.58
2018-07-31T03:17:42.679Z,29.64
2018-07-31T03:18:42.679Z,29.58
2018-07-31T03:19:42.655Z,29.60
2018-07-31T03:20:42.660Z,29.55
2018-07-31T03:21:42.654Z,29.62
2018-07-31T03:22:42.622Z,29.54
2018-07-31T03:23:42.761Z,29.63
2018-07-31T03:24:42.605Z,29.55
2018-07-31T03:25:42.591Z,29.57
2018-07-31T03:26:42.590Z,29.57
2018-07-31T03:27:42.583Z,29.54
2018-07-31T03:28:42.567Z,29.58
2018-07-31T03:29:42.573Z,29.57
2018-07-31T03:30:42.542Z,29.60
2018-07-31T03:31:42.533Z,29.60
2018-07-31T03:32:42.629Z,29.49
2018-07-31T03:33:42.603Z,29.52
2018-07-31T03:34:42.515Z,29.54
2018-07-31T03:35:42.609Z,29.58
2018-07-31T03:36:42.479Z,29.62
2018-07-31T03:37:42.570Z,29.48
2018-07-31T03:38:42.550Z,29.48
2018-07-31T03:39:42.455Z,29.60
2018-07-31T03:40:42.848Z,29.45
2018-07-31T03:41:42.441Z,29.51
2018-07-31T03:42:42.415Z,29.48
2018-07-31T03:43:42.399Z,29.44
2018-07-31T03:44:42.401Z,29.47
2018-07-31T03:45:42.395Z,29.48
2018-07-31T03:46:42.479Z,29.42
2018-07-31T03:47:42.374Z,29.45
2018-07-31T03:48:42.362Z,29.41
2018-07-31T03:49:42.353Z,29.49
2018-07-31T03:50:42.386Z,29.39
2018-07-31T03:51:42.323Z,29.42
2018-07-31T03:52:42.302Z,29.47
2018-07-31T03:53:42.343Z,29.47
2018-07-31T03:54:42.315Z,29.47
2018-07-31T03:55:42.288Z,29.49
2018-07-31T03:56:42.272Z,29.48
2018-07-31T03:57:42.298Z,29.47
2018-07-31T03:58:42.236Z,29.41
2018-07-31T03:59:42.242Z,29.45
2018-07-31T04:00:42.222Z,29.39
2018-07-31T04:01:42.209Z,29.42
2018-07-31T04:02:42.557Z,29.47
2018-07-31T04:03:42.305Z,29.45
2018-07-31T04:04:42.221Z,29.39
2018-07-31T04:05:42.170Z,29.39
2018-07-31T04:06:42.171Z,29.37
2018-07-31T04:07:42.252Z,29.44
2018-07-31T04:08:42.273Z,29.42
2018-07-31T04:09:42.258Z,29.45
2018-07-31T04:10:42.117Z,29.35
2018-07-31T04:11:42.226Z,29.39
2018-07-31T04:12:42.115Z,29.39
2018-07-31T04:13:42.090Z,29.35
2018-07-31T04:14:42.085Z,29.37
2018-07-31T04:15:42.080Z,29.37
2018-07-31T04:16:42.071Z,29.33
2018-07-31T04:17:42.061Z,29.35
2018-07-31T04:18:42.057Z,29.37
2018-07-31T04:19:42.049Z,29.39
2018-07-31T04:20:42.087Z,29.36
2018-07-31T04:21:42.001Z,29.39
2018-07-31T04:22:41.987Z,29.33
2018-07-31T04:23:42.088Z,29.41
2018-07-31T04:24:41.986Z,29.41
2018-07-31T04:25:41.955Z,29.39
2018-07-31T04:26:41.948Z,29.37
2018-07-31T04:27:42.031Z,29.35
2018-07-31T04:28:41.927Z,29.39
2018-07-31T04:29:41.977Z,29.45
2018-07-31T04:30:41.978Z,29.37
2018-07-31T04:31:41.895Z,29.42
2018-07-31T04:32:41.902Z,29.37
2018-07-31T04:33:41.873Z,29.33
2018-07-31T04:34:41.872Z,29.35
2018-07-31T04:35:41.851Z,29.36
2018-07-31T04:36:41.841Z,29.32
2018-07-31T04:37:41.888Z,29.35
2018-07-31T04:38:41.846Z,29.41
2018-07-31T04:39:41.821Z,29.39
2018-07-31T04:40:41.904Z,29.35
2018-07-31T04:41:41.791Z,29.33
2018-07-31T04:42:41.872Z,29.36
2018-07-31T04:43:41.764Z,29.42
2018-07-31T04:44:41.897Z,29.41
2018-07-31T04:45:41.746Z,29.37
2018-07-31T04:46:41.753Z,29.42
2018-07-31T04:47:41.758Z,29.37
2018-07-31T04:48:41.708Z,29.27
2018-07-31T04:49:41.731Z,29.36
2018-07-31T04:50:41.711Z,29.30
2018-07-31T04:51:41.714Z,29.37
2018-07-31T04:52:41.668Z,29.37
2018-07-31T04:53:41.680Z,29.29
2018-07-31T04:54:41.664Z,29.32
2018-07-31T04:55:41.661Z,29.36
2018-07-31T04:56:41.753Z,29.33
2018-07-31T04:57:41.717Z,29.41
2018-07-31T04:58:41.765Z,29.27
2018-07-31T04:59:41.609Z,29.32
2018-07-31T05:00:42.170Z,29.32
2018-07-31T05:01:41.581Z,29.30
2018-07-31T05:02:41.579Z,29.30
2018-07-31T05:03:41.559Z,29.36
2018-07-31T05:04:41.614Z,29.35
2018-07-31T05:05:41.672Z,29.29
2018-07-31T05:06:41.524Z,29.36
2018-07-31T05:07:41.510Z,29.33
2018-07-31T05:08:41.517Z,29.32
2018-07-31T05:09:41.578Z,29.36
2018-07-31T05:10:41.478Z,29.27
2018-07-31T05:11:41.609Z,29.30
2018-07-31T05:12:41.591Z,29.41
2018-07-31T05:13:41.445Z,29.29
2018-07-31T05:14:41.521Z,29.35
2018-07-31T05:15:41.534Z,29.30
2018-07-31T05:16:41.417Z,29.29
2018-07-31T05:17:41.523Z,29.32
2018-07-31T05:18:41.416Z,29.26
2018-07-31T05:19:41.401Z,29.29
2018-07-31T05:20:41.394Z,29.30
2018-07-31T05:21:41.494Z,29.32
2018-07-31T05:22:41.398Z,29.29
2018-07-31T05:23:43.285Z,29.32
2018-07-31T05:24:41.347Z,29.33
2018-07-31T05:25:41.466Z,29.32
2018-07-31T05:26:42.644Z,29.27
2018-07-31T05:27:41.333Z,29.21
2018-07-31T05:28:41.702Z,29.32
2018-07-31T05:29:41.412Z,29.29
2018-07-31T05:30:42.209Z,29.30
2018-07-31T05:31:41.266Z,29.32
2018-07-31T05:32:41.485Z,29.29
2018-07-31T05:33:41.257Z,29.30
2018-07-31T05:34:41.247Z,29.33
2018-07-31T05:35:41.291Z,29.30
2018-07-31T05:36:41.218Z,29.26
2018-07-31T05:37:41.195Z,29.26
2018-07-31T05:38:41.198Z,29.32
2018-07-31T05:39:41.325Z,29.32
2018-07-31T05:40:41.175Z,29.27
2018-07-31T05:41:41.868Z,29.29
2018-07-31T05:42:41.156Z,29.27
2018-07-31T05:43:41.250Z,29.33
2018-07-31T05:44:41.173Z,29.30
2018-07-31T05:45:41.241Z,29.30
2018-07-31T05:46:41.103Z,29.36
2018-07-31T05:47:41.104Z,29.32
2018-07-31T05:48:41.189Z,29.33
2018-07-31T05:49:41.200Z,29.30
2018-07-31T05:50:41.075Z,29.39
2018-07-31T05:51:41.197Z,29.36
2018-07-31T05:52:41.153Z,29.33
2018-07-31T05:53:41.158Z,29.37
2018-07-31T05:54:41.142Z,29.39
2018-07-31T05:55:41.011Z,29.36
2018-07-31T05:56:41.673Z,29.36
2018-07-31T05:57:40.981Z,29.30
2018-07-31T05:58:40.974Z,29.36
2018-07-31T05:59:41.087Z,29.42
2018-07-31T06:00:41.137Z,29.33
2018-07-31T06:01:40.940Z,29.35
2018-07-31T06:02:41.152Z,29.44
2018-07-31T06:03:40.923Z,29.33
2018-07-31T06:04:40.998Z,29.47
2018-07-31T06:05:41.038Z,29.48
2018-07-31T06:06:40.896Z,29.45
2018-07-31T06:07:40.979Z,29.47
2018-07-31T06:08:40.985Z,29.48
2018-07-31T06:09:41.038Z,29.37
2018-07-31T06:10:40.862Z,29.36
2018-07-31T06:11:40.942Z,29.41
2018-07-31T06:12:40.832Z,29.44
2018-07-31T06:13:40.955Z,29.48
2018-07-31T06:14:40.823Z,29.47
2018-07-31T06:15:40.886Z,29.47
2018-07-31T06:16:40.938Z,29.42
2018-07-31T06:17:40.784Z,29.52
2018-07-31T06:18:40.946Z,29.48
2018-07-31T06:19:40.866Z,29.49
2018-07-31T06:20:40.872Z,29.51
2018-07-31T06:21:40.871Z,29.62
2018-07-31T06:22:40.721Z,29.51
2018-07-31T06:23:40.718Z,29.51
2018-07-31T06:24:40.692Z,29.60
2018-07-31T06:25:40.827Z,29.57
2018-07-31T06:26:40.844Z,29.55
2018-07-31T06:27:40.730Z,29.52
2018-07-31T06:28:40.814Z,29.51
2018-07-31T06:29:40.650Z,29.58
2018-07-31T06:30:40.751Z,29.54
2018-07-31T06:31:40.770Z,29.58
2018-07-31T06:32:40.630Z,29.58
2018-07-31T06:33:40.599Z,29.57
2018-07-31T06:34:40.597Z,29.55
2018-07-31T06:35:40.592Z,29.60
2018-07-31T06:36:40.597Z,29.62
2018-07-31T06:37:40.569Z,29.60
2018-07-31T06:38:40.683Z,29.57
2018-07-31T06:39:40.677Z,29.57
2018-07-31T06:40:40.553Z,29.58
2018-07-31T06:41:40.625Z,29.54
2018-07-31T06:42:40.637Z,29.64
2018-07-31T06:43:40.542Z,29.55
2018-07-31T06:44:40.510Z,29.63
2018-07-31T06:45:40.641Z,29.57
2018-07-31T06:46:40.604Z,29.55
2018-07-31T06:47:40.581Z,29.62
2018-07-31T06:48:40.554Z,29.57
2018-07-31T06:49:40.518Z,29.58
2018-07-31T06:50:40.578Z,29.57
2018-07-31T06:51:40.442Z,29.57
2018-07-31T06:52:40.493Z,29.55
2018-07-31T06:53:40.484Z,29.54
2018-07-31T06:54:40.390Z,29.60
2018-07-31T06:55:40.523Z,29.58
2018-07-31T06:56:41.113Z,29.54
2018-07-31T06:57:40.386Z,29.60
2018-07-31T06:58:40.340Z,29.67
2018-07-31T06:59:40.487Z,29.62
2018-07-31T07:00:40.494Z,29.64
2018-07-31T07:01:40.396Z,29.58
2018-07-31T07:02:40.303Z,29.69
2018-07-31T07:03:40.411Z,29.62
2018-07-31T07:04:40.389Z,29.62
2018-07-31T07:05:40.365Z,29.62
2018-07-31T07:06:40.425Z,29.62
2018-07-31T07:07:40.417Z,29.66
2018-07-31T07:08:40.378Z,29.63
2018-07-31T07:09:40.222Z,29.66
2018-07-31T07:10:40.361Z,29.62
2018-07-31T07:11:40.352Z,29.63
2018-07-31T07:12:40.315Z,29.64
2018-07-31T07:13:41.334Z,29.63
2018-07-31T07:14:40.298Z,29.60
2018-07-31T07:15:40.178Z,29.71
2018-07-31T07:16:40.178Z,29.66
2018-07-31T07:17:40.145Z,29.69
2018-07-31T07:18:40.307Z,29.66
2018-07-31T07:19:40.248Z,29.73
2018-07-31T07:20:40.126Z,29.63
2018-07-31T07:21:40.224Z,29.60
2018-07-31T07:22:40.305Z,29.70
2018-07-31T07:23:40.223Z,29.62
2018-07-31T07:24:40.217Z,29.76
2018-07-31T07:25:40.071Z,29.73
2018-07-31T07:26:40.196Z,29.71
2018-07-31T07:27:42.038Z,29.63
2018-07-31T07:28:40.169Z,29.71
2018-07-31T07:29:40.153Z,29.71
2018-07-31T07:30:40.232Z,29.66
2018-07-31T07:31:40.009Z,29.74
2018-07-31T07:32:40.140Z,29.69
2018-07-31T07:33:40.115Z,29.70
2018-07-31T07:34:40.092Z,29.71
2018-07-31T07:35:40.106Z,29.73
2018-07-31T07:36:40.067Z,29.69
2018-07-31T07:37:40.075Z,29.67
2018-07-31T07:38:40.039Z,29.73
2018-07-31T07:39:39.917Z,29.78
2018-07-31T07:40:39.923Z,29.73
2018-07-31T07:41:40.040Z,29.73
2018-07-31T07:42:40.013Z,29.67
2018-07-31T07:43:39.997Z,29.73
2018-07-31T07:44:40.002Z,29.70
2018-07-31T07:45:40.015Z,29.70
2018-07-31T07:46:39.967Z,29.67
2018-07-31T07:47:39.858Z,29.76
2018-07-31T07:48:39.935Z,29.76
2018-07-31T07:49:40.129Z,29.71
2018-07-31T07:50:39.924Z,29.71
2018-07-31T07:51:39.951Z,29.78
2018-07-31T07:52:39.922Z,29.63
2018-07-31T07:53:39.880Z,29.71
2018-07-31T07:54:39.893Z,29.69
2018-07-31T07:55:39.761Z,29.79
2018-07-31T07:56:41.206Z,29.70
2018-07-31T07:57:39.787Z,29.74
2018-07-31T07:58:39.818Z,29.74
2018-07-31T07:59:39.865Z,29.73
2018-07-31T08:00:39.826Z,29.76
2018-07-31T08:01:39.688Z,29.71
2018-07-31T08:02:39.691Z,29.71
2018-07-31T08:03:39.690Z,29.79
2018-07-31T08:04:39.661Z,29.73
2018-07-31T08:05:39.728Z,29.74
2018-07-31T08:06:39.790Z,29.79
2018-07-31T08:07:39.795Z,29.78
2018-07-31T08:08:39.774Z,29.78
2018-07-31T08:09:39.771Z,29.79
2018-07-31T08:10:39.750Z,29.76
2018-07-31T08:11:39.743Z,29.76
2018-07-31T08:12:39.624Z,29.84
2018-07-31T08:13:39.823Z,29.76
2018-07-31T08:14:39.661Z,29.74
2018-07-31T08:15:39.698Z,29.74
2018-07-31T08:16:39.547Z,29.74
2018-07-31T08:17:39.622Z,29.70
2018-07-31T08:18:39.645Z,29.84
2018-07-31T08:19:39.652Z,29.73
2018-07-31T08:20:39.599Z,29.82
2018-07-31T08:21:40.275Z,29.73
2018-07-31T08:22:39.663Z,29.78
2018-07-31T08:23:39.565Z,29.86
2018-07-31T08:24:39.551Z,29.73
2018-07-31T08:25:39.579Z,29.74
2018-07-31T08:26:39.497Z,29.73
2018-07-31T08:27:39.474Z,29.71
2018-07-31T08:28:39.842Z,29.74
2018-07-31T08:29:39.538Z,29.74
2018-07-31T08:30:39.492Z,29.69
2018-07-31T08:31:39.509Z,29.79
2018-07-31T08:32:39.499Z,29.78
2018-07-31T08:33:39.710Z,29.76
2018-07-31T08:34:39.413Z,29.76
2018-07-31T08:35:39.460Z,29.85
2018-07-31T08:36:39.438Z,29.69
2018-07-31T08:37:40.663Z,29.78
2018-07-31T08:38:39.374Z,29.84
2018-07-31T08:39:39.291Z,29.76
2018-07-31T08:40:39.273Z,29.88
2018-07-31T08:41:39.416Z,29.82
2018-07-31T08:42:39.437Z,29.76
2018-07-31T08:43:39.405Z,29.84
2018-07-31T08:44:39.429Z,29.79
2018-07-31T08:45:39.232Z,29.76
2018-07-31T08:46:39.234Z,29.82
2018-07-31T08:47:39.311Z,29.91
2018-07-31T08:48:39.360Z,29.89
2018-07-31T08:49:39.320Z,29.81
2018-07-31T08:50:39.271Z,29.91
2018-07-31T08:51:39.210Z,29.76
2018-07-31T08:52:39.369Z,29.81
2018-07-31T08:53:39.134Z,29.82
2018-07-31T08:54:39.282Z,29.84
2018-07-31T08:55:39.288Z,29.79
2018-07-31T08:56:39.349Z,29.92
2018-07-31T08:57:39.290Z,29.79
2018-07-31T08:58:39.212Z,29.82
2018-07-31T08:59:39.274Z,29.92
2018-07-31T09:00:39.204Z,29.89
2018-07-31T09:01:39.057Z,29.88
2018-07-31T09:02:39.108Z,29.95
2018-07-31T09:03:39.185Z,29.94
2018-07-31T09:04:39.210Z,29.85
2018-07-31T09:05:39.617Z,29.92
2018-07-31T09:06:39.182Z,29.99
2018-07-31T09:07:39.202Z,29.97
2018-07-31T09:08:39.264Z,29.95
2018-07-31T09:09:38.987Z,29.94
2018-07-31T09:10:39.769Z,29.97
2018-07-31T09:11:38.963Z,29.92
2018-07-31T09:12:40.023Z,29.91
2018-07-31T09:13:38.956Z,29.97
2018-07-31T09:14:39.179Z,29.89
2018-07-31T09:15:38.913Z,29.97
2018-07-31T09:16:38.935Z,29.91
2018-07-31T09:17:38.986Z,29.94
2018-07-31T09:18:38.998Z,29.94
2018-07-31T09:19:39.071Z,29.99
2018-07-31T09:20:38.884Z,30.00
2018-07-31T09:21:38.978Z,29.95
2018-07-31T09:22:38.969Z,29.97
2018-07-31T09:23:38.973Z,29.99
2018-07-31T09:24:38.931Z,29.97
2018-07-31T09:25:38.923Z,29.97
2018-07-31T09:26:38.935Z,29.97
2018-07-31T09:27:39.629Z,30.00
2018-07-31T09:28:38.930Z,29.95
2018-07-31T09:29:38.980Z,30.01
2018-07-31T09:30:38.773Z,29.92
2018-07-31T09:31:38.923Z,30.01
2018-07-31T09:32:38.764Z,30.03
2018-07-31T09:33:38.840Z,30.07
2018-07-31T09:34:39.042Z,30.01
2018-07-31T09:35:38.849Z,29.99
2018-07-31T09:36:38.906Z,30.04
2018-07-31T09:37:38.808Z,30.04
2018-07-31T09:38:38.802Z,29.97
2018-07-31T09:39:38.823Z,29.95
2018-07-31T09:40:38.653Z,30.04
2018-07-31T09:41:38.853Z,30.01
2018-07-31T09:42:38.777Z,30.03
2018-07-31T09:43:40.254Z,30.07
2018-07-31T09:44:38.703Z,30.03
2018-07-31T09:45:38.727Z,30.11
2018-07-31T09:46:38.764Z,30.19
2018-07-31T09:47:38.637Z,30.11
2018-07-31T09:48:39.395Z,30.16
2018-07-31T09:49:38.660Z,30.04
2018-07-31T09:50:38.580Z,30.07
2018-07-31T09:51:38.692Z,30.13
2018-07-31T09:52:38.576Z,30.16
2018-07-31T09:53:39.514Z,30.16
2018-07-31T09:54:38.654Z,30.18
2018-07-31T09:55:39.252Z,30.19
2018-07-31T09:56:38.616Z,30.18
2018-07-31T09:57:38.598Z,30.08
2018-07-31T09:58:38.515Z,30.18
2018-07-31T09:59:38.464Z,30.28
2018-07-31T10:00:38.577Z,30.29
2018-07-31T10:01:38.542Z,30.28
2018-07-31T10:02:38.557Z,30.30
2018-07-31T10:03:38.491Z,30.29
2018-07-31T10:04:38.538Z,30.29
2018-07-31T10:05:38.503Z,30.38
2018-07-31T10:06:38.492Z,30.22
2018-07-31T10:07:38.376Z,30.29
2018-07-31T10:08:38.503Z,30.30
2018-07-31T10:09:38.712Z,30.44
2018-07-31T10:10:38.547Z,30.44
2018-07-31T10:11:38.342Z,30.38
2018-07-31T10:12:38.420Z,30.36
2018-07-31T10:13:38.426Z,30.30
2018-07-31T10:14:38.501Z,30.30
2018-07-31T10:15:38.436Z,30.34
2018-07-31T10:16:38.417Z,30.44
2018-07-31T10:17:38.393Z,30.30
2018-07-31T10:18:38.419Z,30.42
2018-07-31T10:19:38.432Z,30.38
2018-07-31T10:20:38.362Z,30.46
2018-07-31T10:21:38.364Z,30.40
2018-07-31T10:22:38.361Z,30.45
2018-07-31T10:23:38.366Z,30.40
2018-07-31T10:24:38.406Z,30.51
2018-07-31T10:25:38.422Z,30.49
2018-07-31T10:26:38.221Z,30.53
2018-07-31T10:27:38.339Z,30.54
2018-07-31T10:28:38.290Z,30.49
2018-07-31T10:29:38.278Z,30.53
2018-07-31T10:30:38.399Z,30.46
2018-07-31T10:31:38.166Z,30.53
2018-07-31T10:32:38.258Z,30.56
2018-07-31T10:33:38.242Z,30.51
2018-07-31T10:34:38.238Z,30.45
2018-07-31T10:35:38.189Z,30.48
2018-07-31T10:36:38.178Z,30.51
2018-07-31T10:37:38.328Z,30.53
2018-07-31T10:38:38.224Z,30.56
2018-07-31T10:39:38.168Z,30.46
2018-07-31T10:40:38.113Z,30.53
2018-07-31T10:41:38.034Z,30.63
2018-07-31T10:42:38.129Z,30.59
2018-07-31T10:43:38.120Z,30.49
2018-07-31T10:44:38.149Z,30.56
2018-07-31T10:45:38.841Z,30.66
2018-07-31T10:46:38.082Z,30.56
2018-07-31T10:47:38.071Z,30.61
2018-07-31T10:48:38.104Z,30.60
2018-07-31T10:49:38.163Z,30.60
2018-07-31T10:50:38.084Z,30.60
2018-07-31T10:51:38.845Z,30.64
2018-07-31T10:52:38.033Z,30.64
2018-07-31T10:53:38.054Z,30.64
2018-07-31T10:54:37.891Z,30.66
2018-07-31T10:55:37.890Z,30.60
2018-07-31T10:56:37.930Z,30.61
2018-07-31T10:57:37.951Z,30.66
2018-07-31T10:58:38.172Z,30.57
2018-07-31T10:59:37.917Z,30.64
2018-07-31T11:00:37.976Z,30.64
2018-07-31T11:01:37.811Z,30.66
2018-07-31T11:02:37.939Z,30.61
2018-07-31T11:03:37.792Z,30.60
2018-07-31T11:04:37.891Z,30.66
2018-07-31T11:05:41.164Z,30.54
2018-07-31T11:06:37.933Z,30.66
2018-07-31T11:07:37.891Z,30.72
2018-07-31T11:08:37.862Z,30.76
2018-07-31T11:09:37.871Z,30.66
2018-07-31T11:10:37.880Z,30.67
2018-07-31T11:11:37.860Z,30.66
2018-07-31T11:12:37.701Z,30.70
2018-07-31T11:13:37.682Z,30.70
2018-07-31T11:14:37.830Z,30.78
2018-07-31T11:15:37.665Z,30.64
2018-07-31T11:16:38.013Z,30.70
2018-07-31T11:17:37.775Z,30.75
2018-07-31T11:18:37.771Z,30.75
2018-07-31T11:19:37.970Z,30.79
2018-07-31T11:20:37.759Z,30.76
2018-07-31T11:21:37.773Z,30.79
2018-07-31T11:22:37.677Z,30.70
2018-07-31T11:23:37.756Z,30.72
2018-07-31T11:24:37.701Z,30.75
2018-07-31T11:25:37.690Z,30.70
2018-07-31T11:26:37.568Z,30.70
2018-07-31T11:27:37.631Z,30.76
2018-07-31T11:28:37.591Z,30.73
2018-07-31T11:29:41.165Z,30.79
2018-07-31T11:30:37.682Z,30.73
2018-07-31T11:31:38.136Z,30.73
2018-07-31T11:32:37.572Z,30.73
2018-07-31T11:33:37.497Z,30.73
2018-07-31T11:34:37.617Z,30.76
2018-07-31T11:35:37.629Z,30.75
2018-07-31T11:36:37.580Z,30.78
2018-07-31T11:37:37.452Z,30.78
2018-07-31T11:38:37.444Z,30.78
2018-07-31T11:39:37.589Z,30.82
2018-07-31T11:40:37.584Z,30.79
2018-07-31T11:41:37.582Z,30.81
2018-07-31T11:42:37.402Z,30.82
2018-07-31T11:43:37.506Z,30.82
2018-07-31T11:44:37.386Z,30.83
2018-07-31T11:45:37.539Z,30.79
2018-07-31T11:46:38.217Z,30.79
2018-07-31T11:47:37.526Z,30.79
2018-07-31T11:48:37.414Z,30.75
2018-07-31T11:49:37.595Z,30.78
2018-07-31T11:50:37.472Z,30.83
2018-07-31T11:51:37.438Z,30.79
2018-07-31T11:52:37.415Z,30.75
2018-07-31T11:53:37.394Z,30.75
2018-07-31T11:54:37.553Z,30.81
2018-07-31T11:55:37.349Z,30.79
2018-07-31T11:56:37.265Z,30.78
2018-07-31T11:57:37.530Z,30.78
2018-07-31T11:58:37.361Z,30.81
2018-07-31T11:59:37.218Z,30.75
2018-07-31T12:00:37.225Z,30.83
2018-07-31T12:01:37.270Z,30.75
2018-07-31T12:02:37.190Z,30.79
2018-07-31T12:03:37.271Z,30.78
2018-07-31T12:04:40.598Z,30.75
2018-07-31T12:05:37.375Z,30.78
2018-07-31T12:06:37.146Z,30.75
2018-07-31T12:07:37.170Z,30.78
2018-07-31T12:08:37.285Z,30.79
2018-07-31T12:09:37.143Z,30.83
2018-07-31T12:10:37.124Z,30.86
2018-07-31T12:11:37.309Z,30.83
2018-07-31T12:12:38.245Z,30.78
2018-07-31T12:13:37.186Z,30.79
2018-07-31T12:14:37.118Z,30.78
2018-07-31T12:15:37.236Z,30.79
2018-07-31T12:16:37.251Z,30.78
2018-07-31T12:17:37.194Z,30.78
2018-07-31T12:18:37.216Z,30.79
2018-07-31T12:19:38.189Z,30.82
2018-07-31T12:20:37.149Z,30.83
2018-07-31T12:21:37.053Z,30.73
2018-07-31T12:22:37.528Z,30.86
2018-07-31T12:23:37.040Z,30.88
2018-07-31T12:24:36.965Z,30.83
2018-07-31T12:25:37.143Z,30.86
2018-07-31T12:26:37.108Z,30.86
2018-07-31T12:27:37.060Z,30.88
2018-07-31T12:28:37.067Z,30.86
2018-07-31T12:29:36.969Z,30.86
2018-07-31T12:30:36.937Z,30.88
2018-07-31T12:31:37.098Z,30.91
2018-07-31T12:32:36.879Z,30.91
2018-07-31T12:33:37.067Z,30.88
2018-07-31T12:34:37.007Z,30.93
2018-07-31T12:35:36.972Z,30.93
2018-07-31T12:36:37.343Z,30.94
2018-07-31T12:37:37.183Z,31.03
2018-07-31T12:38:36.877Z,31.01
2018-07-31T12:39:36.879Z,31.10
2018-07-31T12:40:36.819Z,31.10
2018-07-31T12:41:36.972Z,31.09
2018-07-31T12:42:37.924Z,31.20
2018-07-31T12:43:36.780Z,31.19
2018-07-31T12:44:36.944Z,31.20
2018-07-31T12:45:36.884Z,31.15
2018-07-31T12:46:36.869Z,31.18
2018-07-31T12:47:37.864Z,31.25
2018-07-31T12:48:36.960Z,31.23
2018-07-31T12:49:36.819Z,31.18
2018-07-31T12:50:36.737Z,31.32
2018-07-31T12:51:36.815Z,31.27
2018-07-31T12:52:36.748Z,31.34